^^
Grace C. Lehan Memorial Weather Station Historical Data
Daily Summary for June 17, 2021 Units:  English    Metric   Both
Daily Weekly Monthly Yearly
  High: Low: Average:
Temperature: 79.6 °F 50 °F 65.4 °F
Dew Point: 54.1 °F 44.9 °F 49.6 °F
Humidity: 89% 30.1% 60%
Wind Speed: 2mph 0mph 0.2mph
Wind Gust: 10mph - -
Wind- - SSW
Pressure: 30.27 in 30.19 in -
Precipitation: 0.00 in    
 
 
Tabular Data for June 17, 2021
Time Temperature Dew Point Pressure Wind Wind Speed Wind Gust Humidity Rainfall Rate (Hourly) solar
00:00 58.7 °F 48.2 °F 30.20 in Calm   1 mph 68% 0.00 in 0 W/m2
00:09 58.7 °F 48.1 °F 30.20 in Calm     68% 0.00 in 0 W/m2
00:14 58.6 °F 48.1 °F 30.20 in Calm     68.1% 0.00 in 0 W/m2
00:19 58.5 °F 48.4 °F 30.20 in Calm     69% 0.00 in 0 W/m2
00:24 58.4 °F 48.3 °F 30.20 in Calm     69% 0.00 in 0 W/m2
00:29 58.3 °F 48.2 °F 30.20 in Calm     69% 0.00 in 0 W/m2
00:34 58.2 °F 48.1 °F 30.20 in Calm     69% 0.00 in 0 W/m2
00:39 58 °F 47.9 °F 30.20 in Calm     69% 0.00 in 0 W/m2
00:44 57.9 °F 48 °F 30.20 in Calm     69.5% 0.00 in 0 W/m2
00:49 57.8 °F 48.1 °F 30.20 in Calm     70% 0.00 in 0 W/m2
00:54 57.6 °F 48.1 °F 30.20 in Calm     70.4% 0.00 in 0 W/m2
00:59 57.5 °F 48.2 °F 30.20 in Calm     71% 0.00 in 0 W/m2
01:04 57.3 °F 48.2 °F 30.20 in Calm     71.6% 0.00 in 0 W/m2
01:09 57.3 °F 48.4 °F 30.20 in Calm     72.1% 0.00 in 0 W/m2
01:14 57.1 °F 48.6 °F 30.20 in Calm     73% 0.00 in 0 W/m2
01:19 56.9 °F 48.4 °F 30.20 in Calm     73.1% 0.00 in 0 W/m2
01:24 56.8 °F 48.6 °F 30.20 in Calm     74% 0.00 in 0 W/m2
01:29 56.7 °F 48.5 °F 30.20 in Calm     74% 0.00 in 0 W/m2
01:34 56.6 °F 48.7 °F 30.20 in Calm     74.8% 0.00 in 0 W/m2
01:39 56.5 °F 48.7 °F 30.20 in Calm     75% 0.00 in 0 W/m2
01:44 56.4 °F 48.8 °F 30.20 in Calm     75.7% 0.00 in 0 W/m2
01:49 56.2 °F 48.8 °F 30.20 in Calm     76% 0.00 in 0 W/m2
01:54 56.1 °F 48.6 °F 30.20 in Calm     76% 0.00 in 0 W/m2
01:59 56 °F 48.7 °F 30.20 in Calm     76.4% 0.00 in 0 W/m2
02:04 55.8 °F 48.7 °F 30.20 in Calm     77% 0.00 in 0 W/m2
02:09 55.7 °F 48.6 °F 30.20 in Calm     77% 0.00 in 0 W/m2
02:14 55.6 °F 48.5 °F 30.20 in Calm     77% 0.00 in 0 W/m2
02:19 55.4 °F 48.4 °F 30.21 in Calm     77% 0.00 in 0 W/m2
02:24 55.3 °F 48.5 °F 30.20 in Calm     77.8% 0.00 in 0 W/m2
02:29 55.1 °F 48.3 °F 30.20 in Calm     78% 0.00 in 0 W/m2
02:34 54.8 °F 48.4 °F 30.20 in Calm     78.9% 0.00 in 0 W/m2
02:39 54.6 °F 48.3 °F 30.20 in Calm     79% 0.00 in 0 W/m2
02:44 54.5 °F 48.1 °F 30.20 in Calm     79% 0.00 in 0 W/m2
02:49 54.4 °F 47.9 °F 30.20 in Calm     78.7% 0.00 in 0 W/m2
02:54 54.3 °F 47.8 °F 30.20 in West 0.1 mph 1 mph 78.6% 0.00 in 0 W/m2
02:59 54.2 °F 47.5 °F 30.20 in West 0.1 mph 1 mph 78% 0.00 in 0 W/m2
03:04 54.2 °F 47.5 °F 30.20 in West 0.1 mph 1 mph 78% 0.00 in 0 W/m2
03:09 54.2 °F 47.5 °F 30.20 in West 0.1 mph 1 mph 78% 0.00 in 0 W/m2
03:14 54.2 °F 47.5 °F 30.20 in Calm   1 mph 78% 0.00 in 0 W/m2
03:19 54.3 °F 47.3 °F 30.20 in Calm   1 mph 77.1% 0.00 in 0 W/m2
03:24 54.3 °F 47.3 °F 30.20 in Calm   1 mph 77% 0.00 in 0 W/m2
03:29 54.3 °F 47.3 °F 30.20 in Calm   1 mph 77% 0.00 in 0 W/m2
03:34 54.3 °F 47.4 °F 30.20 in Calm   1 mph 77.6% 0.00 in 0 W/m2
03:39 54.2 °F 47.5 °F 30.20 in Calm     78% 0.00 in 0 W/m2
03:44 54.2 °F 47.5 °F 30.20 in Calm     78% 0.00 in 0 W/m2
03:49 54 °F 47.5 °F 30.20 in Calm     78.7% 0.00 in 0 W/m2
03:54 53.8 °F 47.5 °F 30.20 in Calm     79% 0.00 in 0 W/m2
03:59 53.6 °F 47.3 °F 30.20 in Calm     79% 0.00 in 0 W/m2
04:00 53.5 °F 47.2 °F 30.20 in Calm     79% 0.00 in 0 W/m2
04:09 53.3 °F 47.3 °F 30.20 in Calm     80% 0.00 in 0 W/m2
04:14 53.1 °F 47.1 °F 30.21 in Calm     80% 0.00 in 0 W/m2
04:19 52.8 °F 47.1 °F 30.21 in Calm     80.9% 0.00 in 0 W/m2
04:24 52.6 °F 46.9 °F 30.21 in Calm     81% 0.00 in 0 W/m2
04:29 52.4 °F 46.8 °F 30.21 in Calm     81% 0.00 in 0 W/m2
04:34 52.3 °F 46.6 °F 30.21 in Calm     81% 0.00 in 0 W/m2
04:39 52.1 °F 46.5 °F 30.21 in Calm     81.1% 0.00 in 0 W/m2
04:44 52.1 °F 46.8 °F 30.21 in Calm     82% 0.00 in 0 W/m2
04:49 52 °F 46.7 °F 30.21 in Calm     82% 0.00 in 0 W/m2
04:54 52 °F 46.7 °F 30.22 in Calm     82% 0.00 in 0 W/m2
04:59 51.9 °F 46.6 °F 30.22 in Calm     82% 0.00 in 0 W/m2
05:04 51.8 °F 46.4 °F 30.22 in Calm     82% 0.00 in 0 W/m2
05:09 51.6 °F 46.6 °F 30.22 in Calm     82.9% 0.00 in 0 W/m2
05:14 51.5 °F 46.5 °F 30.22 in Calm     83% 0.00 in 0 W/m2
05:19 51.3 °F 46.4 °F 30.22 in Calm     83% 0.00 in 0 W/m2
05:24 51.2 °F 46.4 °F 30.22 in Calm     83.6% 0.00 in 0 W/m2
05:29 51 °F 46.4 °F 30.22 in Calm     84% 0.00 in 0 W/m2
05:34 50.9 °F 46.2 °F 30.22 in Calm     84% 0.00 in 0 W/m2
05:39 50.7 °F 46.1 °F 30.22 in Calm     84.2% 0.00 in 7 W/m2
05:44 50.6 °F 46.3 °F 30.22 in Calm     85% 0.00 in 9 W/m2
05:49 50.5 °F 46.2 °F 30.23 in Calm     85% 0.00 in 12 W/m2
05:54 50.3 °F 46.2 °F 30.23 in Calm     85.7% 0.00 in 16 W/m2
05:59 50.2 °F 46.1 °F 30.23 in Calm     86% 0.00 in 19 W/m2
06:04 50.1 °F 46 °F 30.23 in Calm     86% 0.00 in 21 W/m2
06:09 50 °F 46.2 °F 30.23 in Calm     86.8% 0.00 in 25 W/m2
06:14 50 °F 46.3 °F 30.23 in Calm     87% 0.00 in 32 W/m2
06:19 50.1 °F 46.4 °F 30.24 in Calm     87% 0.00 in 37 W/m2
06:24 50.2 °F 46.7 °F 30.24 in Calm     87.8% 0.00 in 44 W/m2
06:29 50.4 °F 47 °F 30.24 in Calm     88% 0.00 in 56 W/m2
06:34 50.8 °F 47.4 °F 30.24 in Calm     88.1% 0.00 in 69 W/m2
06:39 51.3 °F 48.2 °F 30.24 in Calm     89% 0.00 in 76 W/m2
06:44 52 °F 48.8 °F 30.24 in Calm     88.8% 0.00 in 79 W/m2
06:49 52.8 °F 49.2 °F 30.24 in Calm     87.7% 0.00 in 118 W/m2
06:54 53.6 °F 49.7 °F 30.24 in Calm     86.6% 0.00 in 206 W/m2
06:59 54.5 °F 50.4 °F 30.25 in Calm     85.8% 0.00 in 209 W/m2
07:04 55.5 °F 50.6 °F 30.25 in Calm     83.3% 0.00 in 211 W/m2
07:09 56.4 °F 50.8 °F 30.25 in WNW 0.5 mph 2 mph 81.4% 0.00 in 253 W/m2
07:14 57.3 °F 51 °F 30.25 in Calm   2 mph 79.6% 0.00 in 278 W/m2
07:19 57.8 °F 50.8 °F 30.25 in WNW 0.1 mph 2 mph 77.5% 0.00 in 295 W/m2
07:24 58.4 °F 51.2 °F 30.25 in Calm   2 mph 76.7% 0.00 in 313 W/m2
07:29 58.8 °F 51.1 °F 30.26 in Calm   2 mph 75.5% 0.00 in 330 W/m2
07:34 59.3 °F 51.4 °F 30.26 in Calm   2 mph 75% 0.00 in 348 W/m2
07:39 59.8 °F 51.3 °F 30.26 in Calm     73.5% 0.00 in 364 W/m2
07:44 60.3 °F 51.6 °F 30.26 in Calm     73.1% 0.00 in 381 W/m2
07:49 60.7 °F 51.2 °F 30.26 in Calm     70.8% 0.00 in 399 W/m2
07:54 61.3 °F 51.6 °F 30.26 in Calm     70.4% 0.00 in 417 W/m2
07:59 61.6 °F 50.9 °F 30.26 in Calm     67.8% 0.00 in 432 W/m2
08:00 61.9 °F 51.2 °F 30.26 in Calm     68% 0.00 in 432 W/m2
08:09 62.8 °F 51.3 °F 30.26 in Calm     66.1% 0.00 in 468 W/m2
08:14 63.1 °F 50.9 °F 30.26 in Calm     64.3% 0.00 in 489 W/m2
08:19 63.6 °F 51.6 °F 30.27 in Calm     64.9% 0.00 in 503 W/m2
08:24 64.2 °F 52.2 °F 30.27 in Calm     65.1% 0.00 in 519 W/m2
08:29 64.5 °F 51.7 °F 30.26 in Calm     63.2% 0.00 in 536 W/m2
08:34 65 °F 53 °F 30.27 in Calm     65.2% 0.00 in 554 W/m2
08:39 65.6 °F 53 °F 30.27 in Calm     63.7% 0.00 in 571 W/m2
08:44 66.1 °F 52.4 °F 30.26 in Calm   1 mph 61.4% 0.00 in 585 W/m2
08:49 66.9 °F 53.4 °F 30.26 in Calm   1 mph 61.9% 0.00 in 598 W/m2
08:54 67.7 °F 52.6 °F 30.26 in Calm   1 mph 58.4% 0.00 in 610 W/m2
08:59 68.4 °F 52.9 °F 30.26 in WNW 0.2 mph 2 mph 57.7% 0.00 in 624 W/m2
09:04 69.1 °F 53.3 °F 30.26 in Calm   2 mph 57.2% 0.00 in 636 W/m2
09:09 69.7 °F 53.1 °F 30.26 in WNW 0.1 mph 2 mph 55.7% 0.00 in 652 W/m2
09:14 69.8 °F 53.1 °F 30.26 in Calm   2 mph 55.4% 0.00 in 666 W/m2
09:19 70 °F 53 °F 30.27 in WNW 0.2 mph 2 mph 54.8% 0.00 in 684 W/m2
09:24 70.2 °F 52 °F 30.26 in Calm   2 mph 52.4% 0.00 in 696 W/m2
09:29 70.4 °F 52.4 °F 30.26 in NNW 0.7 mph 3 mph 52.9% 0.00 in 705 W/m2
09:34 71 °F 52.7 °F 30.26 in Calm   3 mph 52.4% 0.00 in 719 W/m2
09:39 71.6 °F 52.9 °F 30.26 in NE 0.1 mph 2 mph 51.7% 0.00 in 733 W/m2
09:44 71.9 °F 53.3 °F 30.26 in NE 0.1 mph 2 mph 51.8% 0.00 in 749 W/m2
09:49 72.7 °F 53.7 °F 30.26 in NNE 0.4 mph 4 mph 51.4% 0.00 in 763 W/m2
09:54 73.2 °F 53.4 °F 30.26 in Calm   4 mph 49.9% 0.00 in 775 W/m2
09:59 73.7 °F 53.5 °F 30.26 in Calm   4 mph 49.3% 0.00 in 786 W/m2
10:04 74.1 °F 52.4 °F 30.26 in Calm   4 mph 46.8% 0.00 in 796 W/m2
10:09 74.2 °F 52.1 °F 30.26 in Calm   1 mph 45.9% 0.00 in 809 W/m2
10:14 74.6 °F 52.8 °F 30.26 in NNE 0.3 mph 2 mph 46.6% 0.00 in 816 W/m2
10:19 74.9 °F 52.2 °F 30.26 in NE 0.7 mph 4 mph 45.1% 0.00 in 828 W/m2
10:24 75.4 °F 52.2 °F 30.26 in ENE 1.5 mph 4 mph 44.4% 0.00 in 840 W/m2
10:29 76 °F 50.9 °F 30.26 in ENE 0.1 mph 4 mph 41.4% 0.00 in 846 W/m2
10:34 75.7 °F 52.3 °F 30.26 in NE 0.3 mph 4 mph 43.9% 0.00 in 853 W/m2
10:39 75.9 °F 51.7 °F 30.26 in Calm   3 mph 42.8% 0.00 in 863 W/m2
10:44 76.2 °F 51.8 °F 30.26 in Calm   3 mph 42.5% 0.00 in 870 W/m2
10:49 76.5 °F 52 °F 30.26 in Calm   3 mph 42.5% 0.00 in 879 W/m2
10:54 76.8 °F 52.3 °F 30.26 in NE 0.8 mph 3 mph 42.6% 0.00 in 886 W/m2
10:59 77.4 °F 51.3 °F 30.26 in Calm   3 mph 40.2% 0.00 in 896 W/m2
11:04 77.6 °F 50.7 °F 30.25 in Calm   3 mph 39% 0.00 in 902 W/m2
11:09 77.6 °F 50.7 °F 30.25 in NE 0.1 mph 2 mph 39% 0.00 in 909 W/m2
11:14 77.7 °F 49.9 °F 30.25 in NE 0.2 mph 3 mph 37.8% 0.00 in 928 W/m2
11:19 77.5 °F 49.9 °F 30.25 in ENE 0.7 mph 5 mph 38% 0.00 in 935 W/m2
11:24 77.5 °F 48.3 °F 30.25 in Calm   5 mph 35.7% 0.00 in 940 W/m2
11:29 77.3 °F 48.6 °F 30.25 in Calm   5 mph 36.5% 0.00 in 944 W/m2
11:34 77.1 °F 48.8 °F 30.25 in Calm   5 mph 37% 0.00 in 949 W/m2
11:39 76.9 °F 48.9 °F 30.24 in NE 0.3 mph 4 mph 37.3% 0.00 in 951 W/m2
11:44 77.5 °F 50.2 °F 30.24 in NE 0.5 mph 4 mph 38.6% 0.00 in 954 W/m2
11:49 78 °F 48.7 °F 30.24 in Calm   4 mph 35.7% 0.00 in 963 W/m2
11:54 78.2 °F 49.8 °F 30.24 in NE 0.4 mph 4 mph 37% 0.00 in 965 W/m2
11:59 78.4 °F 50.3 °F 30.24 in NE 0.2 mph 4 mph 37.4% 0.00 in 967 W/m2
12:00 78.6 °F 49.4 °F 30.24 in Calm   4 mph 36% 0.00 in 967 W/m2
12:09 78.5 °F 50.3 °F 30.24 in ENE 1.5 mph 6 mph 37.3% 0.00 in 974 W/m2
12:14 78.7 °F 49.1 °F 30.24 in ENE 0.6 mph 6 mph 35.4% 0.00 in 976 W/m2
12:19 78.6 °F 48.3 °F 30.23 in ENE 0.2 mph 6 mph 34.6% 0.00 in 979 W/m2
12:24 78.4 °F 48.8 °F 30.23 in ENE 0.3 mph 6 mph 35.4% 0.00 in 979 W/m2
12:29 78 °F 48.1 °F 30.23 in ENE 1.5 mph 6 mph 35% 0.00 in 990 W/m2
12:34 78 °F 48.6 °F 30.23 in NE 1.3 mph 6 mph 35.5% 0.00 in 990 W/m2
12:39 78.3 °F 48.8 °F 30.22 in NE 1.4 mph 7 mph 35.5% 0.00 in 993 W/m2
12:44 78.3 °F 47.8 °F 30.22 in ENE 1.2 mph 7 mph 34.2% 0.00 in 997 W/m2
12:49 78.2 °F 48.3 °F 30.22 in NE 0.9 mph 7 mph 34.9% 0.00 in 998 W/m2
12:54 78 °F 48.5 °F 30.22 in East 1.2 mph 7 mph 35.5% 0.00 in 995 W/m2
12:59 78.2 °F 49.4 °F 30.22 in East 0.3 mph 7 mph 36.5% 0.00 in 993 W/m2
13:04 78.2 °F 47.9 °F 30.22 in Calm   7 mph 34.6% 0.00 in 997 W/m2
13:09 77.9 °F 46.2 °F 30.22 in Calm   1 mph 32.5% 0.00 in 993 W/m2
13:14 77.4 °F 46.8 °F 30.22 in East 0.1 mph 1 mph 33.9% 0.00 in 993 W/m2
13:19 77.4 °F 49.1 °F 30.22 in East 0.5 mph 3 mph 37% 0.00 in 995 W/m2
13:24 77.9 °F 49.1 °F 30.22 in NE 0.7 mph 5 mph 36.4% 0.00 in 995 W/m2
13:29 78.2 °F 48.5 °F 30.22 in North 1.8 mph 5 mph 35.3% 0.00 in 1002 W/m2
13:34 78.2 °F 47.7 °F 30.22 in North 1 mph 5 mph 34.2% 0.00 in 1004 W/m2
13:39 78.4 °F 46.1 °F 30.21 in NNW 0.2 mph 4 mph 32% 0.00 in 1025 W/m2
13:44 78.5 °F 48 °F 30.21 in NW 1.6 mph 9 mph 34.2% 0.00 in 1039 W/m2
13:49 78.8 °F 47.7 °F 30.21 in WNW 1.4 mph 9 mph 33.5% 0.00 in 1069 W/m2
13:54 79.2 °F 49.5 °F 30.21 in WNW 0.5 mph 9 mph 35.4% 0.00 in 1130 W/m2
13:59 79.6 °F 46.9 °F 30.21 in WNW 1 mph 9 mph 31.7% 0.00 in 1136 W/m2
14:04 79.4 °F 46.1 °F 30.21 in NW 0.3 mph 9 mph 30.9% 0.00 in 944 W/m2
14:09 78.8 °F 44.9 °F 30.21 in NW 0.1 mph 2 mph 30.1% 0.00 in 752 W/m2
14:14 78.4 °F 46.6 °F 30.21 in Calm   2 mph 32.6% 0.00 in 589 W/m2
14:19 78.2 °F 47.6 °F 30.21 in Calm   2 mph 34.1% 0.00 in 392 W/m2
14:24 78.2 °F 48.5 °F 30.21 in NW 0.2 mph 3 mph 35.3% 0.00 in 378 W/m2
14:29 78.1 °F 48 °F 30.21 in NW 1 mph 5 mph 34.7% 0.00 in 339 W/m2
14:34 77.8 °F 49 °F 30.21 in NW 0.1 mph 5 mph 36.3% 0.00 in 327 W/m2
14:39 77.4 °F 48.5 °F 30.21 in NW 0.6 mph 4 mph 36.1% 0.00 in 264 W/m2
14:44 76.9 °F 47.7 °F 30.21 in WNW 1.7 mph 6 mph 35.7% 0.00 in 209 W/m2
14:49 76.4 °F 48.1 °F 30.20 in WNW 1 mph 6 mph 36.8% 0.00 in 202 W/m2
14:54 76 °F 48.1 °F 30.20 in Calm   6 mph 37.2% 0.00 in 181 W/m2
14:59 75.7 °F 48.4 °F 30.20 in Calm   6 mph 38.1% 0.00 in 162 W/m2
15:04 75.5 °F 49.1 °F 30.20 in Calm   6 mph 39.3% 0.00 in 179 W/m2
15:09 75.3 °F 50 °F 30.19 in Calm     41% 0.00 in 188 W/m2
15:14 75.2 °F 51.5 °F 30.19 in Calm     43.6% 0.00 in 193 W/m2
15:19 75 °F 51.3 °F 30.19 in Calm     43.4% 0.00 in 190 W/m2
15:24 74.9 °F 50.3 °F 30.19 in Calm   1 mph 42.1% 0.00 in 223 W/m2
15:29 74.8 °F 50.2 °F 30.19 in WNW 0.2 mph 4 mph 42% 0.00 in 294 W/m2
15:34 74.6 °F 50.4 °F 30.19 in WNW 0.2 mph 4 mph 42.6% 0.00 in 283 W/m2
15:39 74.5 °F 50 °F 30.19 in WNW 0.1 mph 4 mph 42.1% 0.00 in 241 W/m2
15:44 74.3 °F 49.5 °F 30.19 in WNW 0.5 mph 4 mph 41.6% 0.00 in 148 W/m2
15:49 74.2 °F 49.5 °F 30.19 in Calm   4 mph 41.9% 0.00 in 130 W/m2
15:54 74 °F 49.8 °F 30.19 in WNW 1.6 mph 10 mph 42.5% 0.00 in 132 W/m2
15:59 73.7 °F 50 °F 30.19 in WNW 0.5 mph 10 mph 43.2% 0.00 in 156 W/m2
16:09 73.3 °F 50.5 °F 30.19 in West 0.2 mph 2 mph 44.7% 0.00 in 195 W/m2
16:14 73.3 °F 51.4 °F 30.19 in West 0.4 mph 3 mph 46.2% 0.00 in 204 W/m2
16:19 73.2 °F 51.2 °F 30.19 in West 1.2 mph 4 mph 45.9% 0.00 in 204 W/m2
16:24 73.2 °F 51.4 °F 30.19 in West 0.4 mph 4 mph 46.4% 0.00 in 199 W/m2
16:29 73.4 °F 52.6 °F 30.19 in West 0.1 mph 4 mph 48% 0.00 in 190 W/m2
16:34 73.6 °F 52 °F 30.19 in Calm   4 mph 46.7% 0.00 in 190 W/m2
16:39 73.9 °F 51.2 °F 30.19 in Calm   1 mph 45% 0.00 in 176 W/m2
16:44 74.2 °F 52.1 °F 30.19 in Calm   1 mph 45.9% 0.00 in 156 W/m2
16:49 74.4 °F 51.7 °F 30.19 in Calm   1 mph 45% 0.00 in 144 W/m2
16:54 74.5 °F 51.2 °F 30.19 in Calm   1 mph 44% 0.00 in 135 W/m2
16:59 74.6 °F 50.7 °F 30.19 in Calm   1 mph 43% 0.00 in 132 W/m2
17:04 74.6 °F 49.4 °F 30.19 in Calm   3 mph 41.1% 0.00 in 146 W/m2
17:09 74.6 °F 49.5 °F 30.19 in West 0.3 mph 3 mph 41.1% 0.00 in 153 W/m2
17:14 74.6 °F 49.4 °F 30.19 in Calm   3 mph 41% 0.00 in 142 W/m2
17:19 74.7 °F 50.9 °F 30.19 in West 0.1 mph 3 mph 43.2% 0.00 in 102 W/m2
17:24 74.6 °F 50.5 °F 30.19 in West 0.6 mph 4 mph 42.7% 0.00 in 74 W/m2
17:29 74.3 °F 50.1 °F 30.19 in West 0.1 mph 4 mph 42.5% 0.00 in 67 W/m2
17:34 74 °F 50.7 °F 30.19 in West 0.4 mph 4 mph 44% 0.00 in 74 W/m2
17:39 73.5 °F 50.5 °F 30.19 in WSW 1.2 mph 6 mph 44.3% 0.00 in 79 W/m2
17:44 72.9 °F 50.4 °F 30.19 in SW 0.4 mph 6 mph 45.1% 0.00 in 79 W/m2
17:49 72.4 °F 49.8 °F 30.19 in West 0.3 mph 6 mph 44.9% 0.00 in 81 W/m2
17:54 72 °F 49.6 °F 30.19 in WSW 0.8 mph 7 mph 45.1% 0.00 in 74 W/m2
17:59 71.5 °F 49.3 °F 30.19 in WSW 2 mph 9 mph 45.4% 0.00 in 65 W/m2
18:04 71.1 °F 48.9 °F 30.19 in WSW 0.3 mph 9 mph 45.4% 0.00 in 69 W/m2
18:09 70.8 °F 49.4 °F 30.19 in Calm   5 mph 46.7% 0.00 in 84 W/m2
18:14 70.5 °F 50.4 °F 30.19 in WSW 0.1 mph 5 mph 48.9% 0.00 in 86 W/m2
18:19 70.4 °F 50.8 °F 30.19 in WSW 0.3 mph 5 mph 50% 0.00 in 86 W/m2
18:24 70.2 °F 50.6 °F 30.19 in WSW 1.7 mph 7 mph 49.8% 0.00 in 72 W/m2
18:29 70.1 °F 50.7 °F 30.19 in WSW 0.1 mph 7 mph 50.1% 0.00 in 74 W/m2
18:34 70.1 °F 50.6 °F 30.19 in WSW 0.5 mph 7 mph 49.9% 0.00 in 70 W/m2
18:39 70.2 °F 49.5 °F 30.20 in WSW 1 mph 7 mph 47.8% 0.00 in 65 W/m2
18:44 70.2 °F 49.4 °F 30.20 in WSW 0.3 mph 7 mph 47.6% 0.00 in 72 W/m2
18:49 70.3 °F 49.4 °F 30.20 in Calm   7 mph 47.5% 0.00 in 72 W/m2
18:54 70.3 °F 48.9 °F 30.20 in WSW 0.1 mph 7 mph 46.7% 0.00 in 70 W/m2
18:59 70.2 °F 48.8 °F 30.20 in WSW 0.2 mph 7 mph 46.5% 0.00 in 51 W/m2
19:04 70.1 °F 49 °F 30.20 in WSW 0.6 mph 7 mph 47% 0.00 in 53 W/m2
19:09 69.9 °F 49.2 °F 30.20 in Calm   7 mph 47.8% 0.00 in 58 W/m2
19:14 69.8 °F 49.5 °F 30.21 in Calm   7 mph 48.5% 0.00 in 58 W/m2
19:19 69.7 °F 49.2 °F 30.21 in Calm   7 mph 48.2% 0.00 in 44 W/m2
19:24 69.5 °F 49.4 °F 30.21 in Calm   7 mph 48.6% 0.00 in 26 W/m2
19:29 69.4 °F 49.2 °F 30.21 in Calm   7 mph 48.6% 0.00 in 32 W/m2
19:34 69.3 °F 49.5 °F 30.21 in Calm   7 mph 49.4% 0.00 in 40 W/m2
19:39 69.2 °F 51.3 °F 30.21 in Calm     52.9% 0.00 in 40 W/m2
19:44 69 °F 52.7 °F 30.21 in WSW 0.1 mph 2 mph 56.1% 0.00 in 39 W/m2
19:49 68.6 °F 53.3 °F 30.21 in Calm   2 mph 58.2% 0.00 in 19 W/m2
19:54 68.1 °F 53.8 °F 30.22 in Calm   2 mph 60.2% 0.00 in 12 W/m2
19:59 67.7 °F 54.1 °F 30.22 in Calm   2 mph 61.8% 0.00 in 11 W/m2
20:04 66.8 °F 52.9 °F 30.22 in Calm     61% 0.00 in 0 W/m2
20:09 66.5 °F 52 °F 30.23 in Calm     59.5% 0.00 in 0 W/m2
20:14 66.1 °F 51.9 °F 30.23 in Calm     60% 0.00 in 0 W/m2
20:19 65.9 °F 52.4 °F 30.23 in Calm     61.7% 0.00 in 0 W/m2
20:24 65.7 °F 51.7 °F 30.22 in Calm     60.5% 0.00 in 0 W/m2
20:29 65.6 °F 51.6 °F 30.22 in Calm     60.5% 0.00 in 0 W/m2
20:34 65.4 °F 50.8 °F 30.23 in Calm     59.2% 0.00 in 0 W/m2
20:39 65.2 °F 50.5 °F 30.23 in Calm     58.9% 0.00 in 0 W/m2
20:44 65.1 °F 51.2 °F 30.23 in Calm     60.6% 0.00 in 0 W/m2
20:49 65 °F 51.3 °F 30.23 in Calm     61.1% 0.00 in 0 W/m2
20:54 64.9 °F 51.2 °F 30.23 in Calm     61.2% 0.00 in 0 W/m2
20:59 64.7 °F 51.8 °F 30.23 in Calm     62.8% 0.00 in 0 W/m2
21:04 64.5 °F 52.1 °F 30.23 in Calm     64% 0.00 in 0 W/m2
21:09 64.3 °F 51.9 °F 30.23 in Calm     64% 0.00 in 0 W/m2
21:14 64.1 °F 51.7 °F 30.23 in Calm     64.1% 0.00 in 0 W/m2
21:19 63.9 °F 52.4 °F 30.24 in Calm     66.3% 0.00 in 0 W/m2
21:24 63.5 °F 52.4 °F 30.24 in Calm     67% 0.00 in 0 W/m2
21:29 63.2 °F 52 °F 30.24 in Calm     66.7% 0.00 in 0 W/m2
21:34 63 °F 51.7 °F 30.24 in Calm     66.7% 0.00 in 0 W/m2
21:39 62.7 °F 51.6 °F 30.24 in Calm     67% 0.00 in 0 W/m2
21:44 62.4 °F 51.4 °F 30.24 in Calm     67.2% 0.00 in 0 W/m2
21:49 62.2 °F 51.5 °F 30.24 in Calm     68% 0.00 in 0 W/m2
21:54 61.9 °F 51.2 °F 30.24 in Calm     67.8% 0.00 in 0 W/m2
21:59 61.7 °F 50.4 °F 30.24 in Calm     66.5% 0.00 in 0 W/m2
22:04 61.5 °F 50.4 °F 30.24 in Calm     66.9% 0.00 in 0 W/m2
22:09 61.4 °F 50.3 °F 30.24 in Calm     66.9% 0.00 in 0 W/m2
22:14 61.3 °F 50.2 °F 30.24 in Calm     66.8% 0.00 in 0 W/m2
22:19 61.2 °F 50.8 °F 30.24 in Calm     68.6% 0.00 in 0 W/m2
22:24 60.9 °F 50.7 °F 30.24 in Calm     69% 0.00 in 0 W/m2
22:29 60.6 °F 50.7 °F 30.24 in Calm     69.7% 0.00 in 0 W/m2
22:34 60.4 °F 50.6 °F 30.24 in Calm     70% 0.00 in 0 W/m2
22:39 60.1 °F 50.5 °F 30.24 in Calm     70.5% 0.00 in 0 W/m2
22:44 59.9 °F 50.5 °F 30.24 in Calm     71% 0.00 in 0 W/m2
22:49 59.7 °F 50.3 °F 30.24 in Calm     71% 0.00 in 0 W/m2
22:54 59.6 °F 50.4 °F 30.24 in Calm     71.6% 0.00 in 0 W/m2
22:59 59.4 °F 50.4 °F 30.24 in Calm     72% 0.00 in 0 W/m2
23:04 59.3 °F 50.4 °F 30.24 in Calm     72.2% 0.00 in 0 W/m2
23:09 59.3 °F 50.7 °F 30.24 in Calm     73.2% 0.00 in 0 W/m2
23:14 59.1 °F 50.8 °F 30.24 in Calm     74% 0.00 in 0 W/m2
23:19 58.8 °F 50.5 °F 30.24 in Calm     74% 0.00 in 0 W/m2
23:24 58.5 °F 50.2 °F 30.24 in Calm     74% 0.00 in 0 W/m2
23:29 58.1 °F 50.1 °F 30.24 in Calm     74.5% 0.00 in 0 W/m2
23:34 58 °F 50.1 °F 30.24 in Calm     75% 0.00 in 0 W/m2
23:39 57.8 °F 49.9 °F 30.24 in Calm     75% 0.00 in 0 W/m2
23:44 57.7 °F 49.8 °F 30.24 in Calm     75% 0.00 in 0 W/m2
23:49 57.6 °F 49.7 °F 30.24 in Calm     75% 0.00 in 0 W/m2
23:54 57.5 °F 49.6 °F 30.24 in Calm     75% 0.00 in 0 W/m2
23:59 57.4 °F 49.8 °F 30.24 in Calm     75.7% 0.00 in 0 W/m2
Hartford County Weather
Compliments of Weather Underground - 4 mb